WITT

Details ICAO WITT (BTJ)
Name Banda Aceh Sultan Iskandarmuda
Region Indonesia
Timezone Asia/Jakarta (UTC+7.0)
Plans Departing 67
Arriving 78
Stats Elevation 65 ft / 20 m (AMSL)
Location 5.523523° 95.420372°
Runways 1
Magnetic Variation 0.697° W
Sunrise 2017-12-16 23:41:36 UTC / 2017-12-17 06:41:36 Local
Sunset 2017-12-17 11:29:46 UTC / 2017-12-17 18:29:46 Local
Advertisement - Login to hide

Runways

ID Width Length Bearing (true) Bearing (mag) Surface Threshold Offset Overrun Length
17 148 ft / 45 m 8,229 ft / 2,508 m 168.37° 169.07° Asphalt 0 ft / 0 m 210 ft / 64 m
35 148 ft / 45 m 8,229 ft / 2,508 m 348.37° 349.07° Asphalt 0 ft / 0 m 220 ft / 67 m

Approach Navaids

Runway Type Ident Frequency Range Bearing (true) Bearing (mag) Slope Elevation
17 Localiser IBAC 111.30 MHz 18 nm / 33 km 168.46° 169.16° - 65 ft / 20 m (AMSL)
17 Glidescope IBAC 111.30 MHz 10 nm / 19 km 168.37° 169.07° 3.00° 65 ft / 20 m (AMSL)

Map

Weather


0- 5 10 15 20 25 30 35+ Temperature / ° C

Clouds and Precipitation
Forecast for 2017-12-17 12:00 UTC. Updated an hour ago

Ground ~20,000 ft ~40,000 ft Winds

METAR

Not found

TAF

TAF WITT 171100Z 1712/1812 06006KT 9999 SCT018 BECMG 1713/1715 14006KT BECMG 1720/1722 00000KT 6000 BR FEW018

Frequencies

Tower 122.20 MHz TWR
Warning: Do not use this data for real-world aviation or navigation. No guarantee of current accuracy is given.